Monday, January 21, 2019, 5:20 PM EST
Back to Local

KNEL, Lakehurst Naval Air Station

Location: Lakehurst, NJ, United States Lat: 40.033
Local Time: 5:20 PM EST (22:20 GMT) Lon: -74.317
Time Zone: US/Eastern Elev: 101 ft

Show me the last for .
Show Coded

Time T Td Feel RH Dir Speed Gust Alt SLP Vis Weather Sky Remarks
2019-01-21 17:00 - - - 0 300° 20 36 30.20 - 0 -RA CLR Peak wind: 36 mph (32 kts) from 300° at 11 min
2019-01-21 16:00 - - - 0 300° 21 33 30.16 - 0 -RA CLR Peak wind: 40 mph (35 kts) from 290° at 23 min
2019-01-21 15:00 - - - 0 290° 26 39 30.14 - 0 -RA CLR Peak wind: 42 mph (37 kts) from 300° at 50 min
2019-01-21 14:00 - - - 0 300° 24 37 30.11 - 0 -RA CLR Peak wind: 41 mph (36 kts) from 280° at 17 min
2019-01-21 13:00 - - - 0 300° 32 45 30.10 - 0 -RA CLR Peak wind: 44 mph (39 kts) from 300° at 00 min
2019-01-21 12:00 - - - 0 310° 26 45 30.10 - 0 -RA CLR Peak wind: 44 mph (39 kts) from 300° at 56 min
2019-01-21 11:00 - - - 0 300° 22 38 30.11 - 0 -RA FEW120 Peak wind: 41 mph (36 kts) from 290° at 30 min
2019-01-21 10:00 - - - 0 290° 21 38 30.08 - 0 -RA FEW045 Peak wind: 37 mph (33 kts) from 280° at 53 min
2019-01-21 09:00 - - - 0 300° 18 32 30.05 - 0 -RA FEW043 Peak wind: 37 mph (33 kts) from 290° at 50 min
2019-01-21 08:00 - - - 0 300° 25 33 30.02 - 0 -RA SCT041 Peak wind: 35 mph (31 kts) from 290° at 15 min
2019-01-21 07:00 - - - 0 300° 23 36 29.98 - 0 -RA SCT041 Peak wind: 35 mph (31 kts) from 280° at 57 min
2019-01-21 06:00 - - - 0 300° 23 36 29.95 - 0 -RA CLR Peak wind: 36 mph (32 kts) from 290° at 10 min
2019-01-21 05:00 - - - 0 300° 18 33 29.93 - 0 -RA FEW041 Peak wind: 33 mph (29 kts) from 300° at 28 min
2019-01-21 04:00 - - - 0 300° 22 39 29.90 - 0 -RA BKN040 Peak wind: 39 mph (34 kts) from 300° at 56 min
2019-01-21 03:00 - - - 0 300° 16 28 29.89 - 0 -RA CLR Peak wind: 36 mph (32 kts) from 300° at 08 min
2019-01-21 02:00 - - - 0 300° 22 33 29.86 - 0 -RA FEW043 Peak wind: 34 mph (30 kts) from 290° at 42 min
2019-01-21 01:00 - - - 0 310° 18 28 29.83 - 0 CLR Peak wind: 34 mph (30 kts) from 310° at 19 min
2019-01-21 00:00 - - - 0 300° 20 35 29.81 - 0 -RA CLR Peak wind: 29 mph (26 kts) from 300° at 00 min
2019-01-20 23:00 - - - 0 310° 16 35 29.78 - 0 -RA CLR Peak wind: 34 mph (30 kts) from 320° at 57 min
2019-01-20 22:00 - - - 0 300° 15 28 29.74 - 0 CLR Peak wind: 31 mph (27 kts) from 320° at 43 min
2019-01-20 21:00 - - - 0 310° 18 35 29.71 - 0 FEW035 Peak wind: 35 mph (31 kts) from 290° at 16 min
2019-01-20 20:08 - - - 0 310° 21 31 29.68 - 0 -RA BKN032 Peak wind: 36 mph (32 kts) from 320° at 30 min
2019-01-20 20:00 - - - 0 320° 14 22 29.68 - 0 BKN030 Peak wind: 36 mph (32 kts) from 320° at 30 min
2019-01-20 19:00 - - - 0 310° 14 35 29.64 - 0 -RA CLR Peak wind: 43 mph (38 kts) from 310° at 48 min
2019-01-20 18:00 - - - 0 300° 21 31 29.58 - 0 -RA CLR Peak wind: 40 mph (35 kts) from 290° at 08 min

Support USWX by starting your Amazon purchase here.